Time;durP1;ratioP1;P1;durP2;ratioP2;P2;SDS_P1;SDS_P2;PMS_P1;PMS_P2;Temp;Humidity;BMP_temperature;BMP_pressure;BME280_temperature;BME280_humidity;BME280_pressure;Samples;Min_cycle;Max_cycle;Signal;HPM_P1;HPM_P2
2022/01/30 00:00:39;;;;;;;;;;;;;;;25.89;59.89;97382.84;625457;227;67252;-63
2022/01/30 00:03:06;;;;;;;;;;;;;;;25.89;60.52;97374.77;625477;227;65010;-64
2022/01/30 00:05:34;;;;;;;;;;;;;;;25.88;58.47;97373.98;625472;227;67192;-64
2022/01/30 00:08:02;;;;;;;;;;;;;;;25.87;59.10;97375.08;625533;227;66843;-64
2022/01/30 00:10:32;;;;;;;;;;;;;;;25.85;59.05;97365.70;625494;227;64847;-64
2022/01/30 00:13:01;;;;;;;;;;;;;;;25.85;59.37;97363.00;625471;227;67230;-63
2022/01/30 00:15:48;;;;;;;;;;;;;;;25.85;60.20;97366.48;625441;227;65004;-64
2022/01/30 00:23:31;;;;;;;;;;;;;;;25.81;60.56;97352.00;614906;227;66779;-63
2022/01/30 00:25:59;;;;;;;;;;;;;;;25.79;59.82;97337.23;625438;226;65984;-63
2022/01/30 00:28:27;;;;;;;;;;;;;;;25.77;59.90;97326.75;625442;227;64962;-63
2022/01/30 00:30:55;;;;;;;;;;;;;;;25.77;59.87;97329.44;625479;227;66872;-63
2022/01/30 00:33:23;;;;;;;;;;;;;;;25.76;59.96;97322.47;625453;227;65062;-63
2022/01/30 00:35:50;;;;;;;;;;;;;;;25.75;60.51;97318.16;625540;227;64974;-63
2022/01/30 00:38:22;;;;;;;;;;;;;;;25.76;60.57;97311.70;625484;226;63373;-63
2022/01/30 00:40:53;;;;;;;;;;;;;;;25.74;59.75;97302.32;625519;227;46201;-63
2022/01/30 00:43:21;;;;;;;;;;;;;;;25.74;60.47;97294.25;625453;227;64846;-68
2022/01/30 00:45:48;;;;;;;;;;;;;;;25.72;60.36;97281.06;625454;227;65451;-69
2022/01/30 00:48:16;;;;;;;;;;;;;;;25.72;61.03;97280.27;625462;227;65014;-68
2022/01/30 00:50:44;;;;;;;;;;;;;;;25.67;60.15;97279.28;625471;227;67222;-68
2022/01/30 00:53:12;;;;;;;;;;;;;;;25.69;60.57;97276.28;625231;226;67779;-68
2022/01/30 00:55:40;;;;;;;;;;;;;;;25.70;60.24;97275.20;623317;227;64824;-68
2022/01/30 00:58:08;;;;;;;;;;;;;;;25.70;61.14;97264.44;623292;227;64472;-69
2022/01/30 01:00:35;;;;;;;;;;;;;;;25.70;60.32;97256.36;623318;227;66680;-68
2022/01/30 01:03:03;;;;;;;;;;;;;;;25.68;60.60;97242.39;623483;227;62812;-68
2022/01/30 01:05:32;;;;;;;;;;;;;;;25.67;60.58;97246.98;623361;227;67083;-68
2022/01/30 01:08:08;;;;;;;;;;;;;;;25.64;60.68;97242.16;623410;227;64747;-69
2022/01/30 01:10:41;;;;;;;;;;;;;;;25.62;60.96;97222.84;623131;227;63538;-69
2022/01/30 01:24:04;;;;;;;;;;;;;;;25.60;61.40;97216.16;623438;227;62745;-68
2022/01/30 01:26:29;;;;;;;;;;;;;;;25.59;58.72;97218.06;623241;227;62962;-69
2022/01/30 01:28:56;;;;;;;;;;;;;;;25.62;60.74;97216.67;623394;227;64956;-68
2022/01/30 01:31:24;;;;;;;;;;;;;;;25.58;58.30;97216.44;623353;227;64844;-68
2022/01/30 01:34:21;;;;;;;;;;;;;;;25.58;59.41;97212.95;623366;227;63126;-69
2022/01/30 01:36:36;;;;;;;;;;;;;;;25.58;60.34;97211.06;622811;227;67129;-69
2022/01/30 01:39:04;;;;;;;;;;;;;;;25.58;60.99;97210.27;623364;227;66986;-69
2022/01/30 01:41:33;;;;;;;;;;;;;;;25.57;59.16;97205.98;623367;227;65349;-69
2022/01/30 01:44:01;;;;;;;;;;;;;;;25.55;58.47;97203.58;623366;227;67307;-69
2022/01/30 01:46:34;;;;;;;;;;;;;;;25.56;59.80;97207.86;623355;227;64997;-69
2022/01/30 01:48:58;;;;;;;;;;;;;;;25.54;60.65;97203.89;623233;227;64898;-69
2022/01/30 01:51:29;;;;;;;;;;;;;;;25.52;59.26;97198.80;623387;227;64752;-64
2022/01/30 01:53:57;;;;;;;;;;;;;;;25.51;58.53;97199.08;623360;227;67319;-64
2022/01/30 01:56:25;;;;;;;;;;;;;;;25.52;59.99;97177.27;623360;227;65450;-64
2022/01/30 01:58:55;;;;;;;;;;;;;;;25.51;60.46;97172.17;623056;227;42990;-64
2022/01/30 02:01:28;;;;;;;;;;;;;;;25.51;58.48;97166.79;612248;227;48425;-64
2022/01/30 02:03:57;;;;;;;;;;;;;;;25.48;58.84;97170.88;623371;227;65429;-64
2022/01/30 02:06:27;;;;;;;;;;;;;;;25.47;60.08;97163.91;623360;227;68012;-64
2022/01/30 02:08:59;;;;;;;;;;;;;;;25.45;59.59;97163.39;623361;227;67134;-64
2022/01/30 02:11:38;;;;;;;;;;;;;;;25.46;60.81;97159.63;623295;227;65788;-64
2022/01/30 02:27:46;;;;;;;;;;;;;;;25.40;59.49;97141.95;623315;227;65275;-63
2022/01/30 02:30:17;;;;;;;;;;;;;;;25.37;58.48;97139.86;623339;227;65297;-64
2022/01/30 02:32:48;;;;;;;;;;;;;;;25.37;61.30;97131.79;623314;227;67071;-64
2022/01/30 02:35:15;;;;;;;;;;;;;;;25.34;60.03;97119.73;623322;227;65336;-64
2022/01/30 02:37:43;;;;;;;;;;;;;;;25.33;60.16;97120.05;623328;227;64942;-64
2022/01/30 02:40:13;;;;;;;;;;;;;;;25.33;59.93;97125.42;623370;227;67018;-64
2022/01/30 02:42:46;;;;;;;;;;;;;;;25.32;58.44;97116.56;623327;227;63814;-64
2022/01/30 02:45:12;;;;;;;;;;;;;;;25.32;56.71;97116.56;623168;227;64844;-64
2022/01/30 02:51:08;;;;;;;;;;;;;;;25.30;58.69;97113.36;623346;227;65096;-63
2022/01/30 02:52:57;;;;;;;;;;;;;;;25.29;59.42;97090.27;617738;227;67353;-64
2022/01/30 02:55:21;;;;;;;;;;;;;;;25.28;60.42;97096.72;620820;226;67124;-64
2022/01/30 02:57:48;;;;;;;;;;;;;;;25.27;57.26;97091.65;620882;228;65168;-64
2022/01/30 03:00:16;;;;;;;;;;;;;;;25.25;58.03;97090.03;620861;228;67613;-64
2022/01/30 03:02:44;;;;;;;;;;;;;;;25.25;59.31;97087.34;620912;228;64957;-64
2022/01/30 03:05:12;;;;;;;;;;;;;;;25.23;57.43;97086.05;620901;228;62597;-64
2022/01/30 03:07:39;;;;;;;;;;;;;;;25.23;58.41;97086.84;620966;228;67425;-64
2022/01/30 03:10:07;;;;;;;;;;;;;;;25.21;60.42;97078.29;620935;226;66635;-64
2022/01/30 03:12:35;;;;;;;;;;;;;;;25.23;59.71;97080.66;620870;228;65057;-64
2022/01/30 03:15:03;;;;;;;;;;;;;;;25.20;58.46;97075.88;620907;228;64444;-64
2022/01/30 03:17:30;;;;;;;;;;;;;;;25.19;58.88;97071.61;620887;226;67370;-64
2022/01/30 03:19:58;;;;;;;;;;;;;;;25.18;58.52;97070.00;620921;228;65105;-64
2022/01/30 03:22:27;;;;;;;;;;;;;;;25.18;61.05;97070.00;620905;228;64540;-64
2022/01/30 03:24:54;;;;;;;;;;;;;;;25.16;60.29;97064.93;620851;228;67093;-64
2022/01/30 03:27:28;;;;;;;;;;;;;;;25.16;59.44;97069.52;620249;228;46486;-65
2022/01/30 03:30:06;;;;;;;;;;;;;;;25.15;60.27;97073.28;620894;228;67143;-65
2022/01/30 03:32:43;;;;;;;;;;;;;;;25.16;58.72;97064.14;598566;236;48389;-63
2022/01/30 03:35:11;;;;;;;;;;;;;;;25.13;57.98;97059.33;620948;228;65712;-68
2022/01/30 03:37:38;;;;;;;;;;;;;;;25.13;58.97;97057.43;620884;226;63646;-68
2022/01/30 03:40:06;;;;;;;;;;;;;;;25.10;57.21;97049.14;620873;228;65731;-68
2022/01/30 03:42:35;;;;;;;;;;;;;;;25.10;59.60;97049.96;620865;228;63922;-68
2022/01/30 03:45:02;;;;;;;;;;;;;;;25.08;57.82;97044.08;620932;228;65281;-68
2022/01/30 03:47:31;;;;;;;;;;;;;;;25.08;60.25;97041.39;620926;228;67044;-68
2022/01/30 03:49:59;;;;;;;;;;;;;;;25.08;57.44;97033.31;620872;228;62796;-68
2022/01/30 03:52:26;;;;;;;;;;;;;;;25.08;59.04;97029.84;620880;228;64840;-63
2022/01/30 03:54:54;;;;;;;;;;;;;;;25.06;60.71;97026.64;624558;227;65078;-63
2022/01/30 03:57:22;;;;;;;;;;;;;;;25.06;59.58;97026.64;625469;227;65592;-63
2022/01/30 03:59:49;;;;;;;;;;;;;;;25.03;57.38;97028.83;625515;227;67210;-68
2022/01/30 04:02:18;;;;;;;;;;;;;;;25.02;58.32;97037.20;625444;227;67761;-68
2022/01/30 04:04:46;;;;;;;;;;;;;;;25.03;57.10;97036.09;625464;227;63777;-68
2022/01/30 04:07:13;;;;;;;;;;;;;;;24.99;58.40;97022.45;625461;226;67089;-68
2022/01/30 04:09:55;;;;;;;;;;;;;;;24.99;60.66;97032.39;624430;227;48105;-68
2022/01/30 04:12:25;;;;;;;;;;;;;;;25.00;58.50;97042.07;625389;227;43641;-69
2022/01/30 04:15:04;;;;;;;;;;;;;;;24.98;60.20;97042.35;618380;227;48327;-68
2022/01/30 04:17:40;;;;;;;;;;;;;;;24.98;58.76;97045.05;614975;227;48370;-69
2022/01/30 04:20:09;;;;;;;;;;;;;;;24.96;59.53;97041.05;625320;227;43175;-64
2022/01/30 04:22:39;;;;;;;;;;;;;;;24.96;60.36;97044.56;619279;227;46893;-64
2022/01/30 04:25:24;;;;;;;;;;;;;;;24.95;59.03;97040.27;604687;234;47985;-63
2022/01/30 04:28:02;;;;;;;;;;;;;;;24.94;59.74;97041.36;620124;227;47104;-64
2022/01/30 04:30:31;;;;;;;;;;;;;;;24.91;56.57;97035.77;617779;227;48441;-64
2022/01/30 04:33:13;;;;;;;;;;;;;;;24.90;62.81;97032.28;611481;227;49955;-68
2022/01/30 04:35:59;;;;;;;;;;;;;;;24.90;61.88;97031.48;604684;234;47827;-70
2022/01/30 04:38:43;;;;;;;;;;;;;;;24.86;57.71;97017.85;616113;227;48384;-70
2022/01/30 04:56:39;;;;;;;;;;;;;;;24.79;61.88;96969.05;617689;229;50307;-69
2022/01/30 04:59:10;;;;;;;;;;;;;;;24.78;63.64;96965.57;615931;229;49185;-69
2022/01/30 05:01:58;;;;;;;;;;;;;;;24.75;59.72;96944.67;617044;229;47447;-69
2022/01/30 05:07:33;;;;;;;;;;;;;;;24.76;61.25;96937.40;596795;237;38700;-64
2022/01/30 05:10:17;;;;;;;;;;;;;;;24.71;57.48;96929.42;598664;237;40974;-65
2022/01/30 05:12:58;;;;;;;;;;;;;;;24.70;61.00;96912.51;579716;244;46935;-64
2022/01/30 05:15:30;;;;;;;;;;;;;;;24.72;60.66;96896.89;598049;236;49443;-64
2022/01/30 05:18:10;;;;;;;;;;;;;;;24.72;60.44;96888.05;598592;236;47667;-63
2022/01/30 05:20:56;;;;;;;;;;;;;;;24.69;62.89;96885.92;598634;237;44504;-65
2022/01/30 05:23:32;;;;;;;;;;;;;;;24.68;62.02;96887.03;598277;237;44979;-65
2022/01/30 05:26:16;;;;;;;;;;;;;;;24.67;62.51;96859.37;598443;237;43560;-64
2022/01/30 05:28:46;;;;;;;;;;;;;;;24.66;58.44;96847.01;598038;237;49419;-65
2022/01/30 05:31:21;;;;;;;;;;;;;;;24.66;60.34;96846.22;597830;237;47812;-65
2022/01/30 05:34:07;;;;;;;;;;;;;;;24.65;58.63;96850.02;598604;237;37258;-64
2022/01/30 05:36:49;;;;;;;;;;;;;;;24.63;62.43;96862.94;585804;237;47655;-64
2022/01/30 05:39:35;;;;;;;;;;;;;;;24.63;59.63;96862.94;598629;237;38410;-64
2022/01/30 05:42:05;;;;;;;;;;;;;;;24.63;58.99;96873.69;596102;237;46058;-64
2022/01/30 05:47:47;;;;;;;;;;;;;;;24.59;59.11;96860.06;598628;237;38566;-64
2022/01/30 05:50:23;;;;;;;;;;;;;;;24.58;59.52;96855.77;597701;237;47560;-64
2022/01/30 05:52:55;;;;;;;;;;;;;;;24.57;61.31;96852.28;598316;237;45422;-64
2022/01/30 05:55:25;;;;;;;;;;;;;;;24.58;61.45;96845.84;597122;237;48160;-64
2022/01/30 05:57:52;;;;;;;;;;;;;;;24.52;61.99;96836.26;608824;233;65336;-64
2022/01/30 06:00:21;;;;;;;;;;;;;;;24.51;62.33;96855.38;603250;235;44384;-64
2022/01/30 06:02:57;;;;;;;;;;;;;;;24.54;61.93;96849.41;603795;234;51902;-69
2022/01/30 06:05:25;;;;;;;;;;;;;;;24.53;57.20;96840.55;603715;235;65718;-69
2022/01/30 06:07:57;;;;;;;;;;;;;;;24.55;58.11;96840.24;603798;235;67134;-69
2022/01/30 06:10:26;;;;;;;;;;;;;;;24.56;57.04;96839.17;603756;235;64976;-69
2022/01/30 06:12:54;;;;;;;;;;;;;;;24.54;59.79;96841.34;603767;235;63718;-69
2022/01/30 06:15:21;;;;;;;;;;;;;;;24.53;58.80;96848.62;603730;235;67473;-69
2022/01/30 06:17:51;;;;;;;;;;;;;;;24.52;57.37;96849.69;603667;235;44383;-69
2022/01/30 06:20:30;;;;;;;;;;;;;;;24.52;58.26;96847.01;589016;240;46840;-69
2022/01/30 06:23:16;;;;;;;;;;;;;;;24.52;57.13;96848.91;603900;235;38037;-69
2022/01/30 06:25:54;;;;;;;;;;;;;;;24.52;58.10;96838.95;588948;240;49131;-69
2022/01/30 06:28:40;;;;;;;;;;;;;;;24.51;57.21;96826.62;603852;235;41161;-69
2022/01/30 06:31:26;;;;;;;;;;;;;;;24.50;58.43;96819.66;588953;240;47989;-69
2022/01/30 06:34:14;;;;;;;;;;;;;;;24.50;61.29;96821.53;581402;243;49172;-70
2022/01/30 06:36:56;;;;;;;;;;;;;;;24.48;57.58;96810.31;577832;243;47519;-70
2022/01/30 06:39:28;;;;;;;;;;;;;;;24.48;59.86;96815.69;591898;235;47661;-70
2022/01/30 06:42:07;;;;;;;;;;;;;;;24.46;58.58;96807.91;603211;234;50102;-69
2022/01/30 06:44:52;;;;;;;;;;;;;;;24.46;59.44;96799.06;603854;235;37236;-69
2022/01/30 06:47:42;;;;;;;;;;;;;;;24.45;58.22;96803.64;603852;235;38547;-64
2022/01/30 06:50:27;;;;;;;;;;;;;;;24.45;58.27;96808.23;603889;235;42622;-64
2022/01/30 06:53:13;;;;;;;;;;;;;;;24.44;58.16;96795.88;604309;230;41145;-65
2022/01/30 06:55:43;;;;;;;;;;;;;;;24.44;61.17;96795.88;607481;233;47788;-64
2022/01/30 06:58:28;;;;;;;;;;;;;;;24.43;57.92;96805.00;608674;233;38430;-64
2022/01/30 07:01:10;;;;;;;;;;;;;;;24.43;58.74;96805.00;598745;233;47338;-64
2022/01/30 07:03:40;;;;;;;;;;;;;;;24.42;58.18;96822.20;606603;230;47663;-64
2022/01/30 07:06:24;;;;;;;;;;;;;;;24.42;59.90;96801.53;608393;231;45980;-64
2022/01/30 07:08:52;;;;;;;;;;;;;;;24.41;58.00;96781.11;608589;233;65226;-64
2022/01/30 07:11:20;;;;;;;;;;;;;;;24.39;60.18;96772.58;608535;233;67063;-64
2022/01/30 07:13:47;;;;;;;;;;;;;;;24.39;58.19;96761.84;608542;233;67102;-64
2022/01/30 07:16:15;;;;;;;;;;;;;;;24.39;58.80;96751.09;608494;233;65143;-64
2022/01/30 07:18:43;;;;;;;;;;;;;;;24.39;59.59;96748.41;608489;233;64384;-64
2022/01/30 07:21:11;;;;;;;;;;;;;;;24.40;61.39;96736.56;608518;233;67569;-64
2022/01/30 07:23:38;;;;;;;;;;;;;;;24.41;60.01;96732.77;608524;233;65014;-64
2022/01/30 07:26:06;;;;;;;;;;;;;;;24.41;59.22;96727.39;608527;233;66924;-64
2022/01/30 07:28:33;;;;;;;;;;;;;;;24.41;59.90;96740.83;608409;233;64435;-64
2022/01/30 07:31:01;;;;;;;;;;;;;;;24.41;58.97;96738.14;608526;233;62741;-62
2022/01/30 07:33:28;;;;;;;;;;;;;;;24.42;60.07;96728.19;608440;233;64494;-64
2022/01/30 07:35:57;;;;;;;;;;;;;;;24.42;61.05;96717.44;608410;231;66963;-63
2022/01/30 07:38:25;;;;;;;;;;;;;;;24.40;59.99;96723.13;608497;233;62983;-63
2022/01/30 07:40:52;;;;;;;;;;;;;;;24.37;61.91;96726.42;608539;233;65024;-63
2022/01/30 07:43:20;;;;;;;;;;;;;;;24.41;57.81;96721.23;608545;233;64733;-63
2022/01/30 07:45:55;;;;;;;;;;;;;;;24.44;59.95;96716.08;608361;233;42487;-63
2022/01/30 07:48:22;;;;;;;;;;;;;;;24.43;56.92;96714.47;608601;233;66749;-63
2022/01/30 07:50:50;;;;;;;;;;;;;;;24.45;60.61;96709.63;608539;233;66791;-64
2022/01/30 07:53:17;;;;;;;;;;;;;;;24.46;61.52;96707.73;608484;232;65154;-64
2022/01/30 07:55:45;;;;;;;;;;;;;;;24.48;61.95;96711.71;608536;233;66903;-65
2022/01/30 07:58:12;;;;;;;;;;;;;;;24.49;62.18;96715.19;608545;233;66920;-65
2022/01/30 08:00:40;;;;;;;;;;;;;;;24.50;62.18;96714.91;608573;233;65012;-65
2022/01/30 08:03:08;;;;;;;;;;;;;;;24.52;63.06;96728.80;608509;233;66938;-65
2022/01/30 08:05:35;;;;;;;;;;;;;;;24.53;62.58;96719.67;608555;233;64653;-64
2022/01/30 08:08:03;;;;;;;;;;;;;;;24.53;62.59;96714.30;608541;233;62943;-64
2022/01/30 08:10:30;;;;;;;;;;;;;;;24.51;61.65;96710.31;608495;233;64705;-63
2022/01/30 08:12:58;;;;;;;;;;;;;;;24.52;62.89;96711.90;608592;233;65659;-65
2022/01/30 08:15:25;;;;;;;;;;;;;;;24.54;62.90;96709.72;608526;233;62683;-63
2022/01/30 08:17:53;;;;;;;;;;;;;;;24.53;63.54;96702.77;608553;230;64612;-64
2022/01/30 08:20:24;;;;;;;;;;;;;;;24.56;63.10;96692.20;608567;233;66605;-64
2022/01/30 08:22:51;;;;;;;;;;;;;;;24.56;63.28;96675.29;608450;233;65064;-64
2022/01/30 08:25:20;;;;;;;;;;;;;;;24.56;62.81;96662.65;608596;233;66974;-64
2022/01/30 08:27:48;;;;;;;;;;;;;;;24.58;62.94;96657.77;608546;233;65855;-64
2022/01/30 08:30:16;;;;;;;;;;;;;;;24.59;63.68;96664.72;608576;233;62925;-64
2022/01/30 08:32:44;;;;;;;;;;;;;;;24.62;62.72;96662.54;608517;230;64782;-63
2022/01/30 08:35:12;;;;;;;;;;;;;;;24.62;62.34;96662.54;608520;233;64638;-64
2022/01/30 08:37:40;;;;;;;;;;;;;;;24.63;62.49;96664.91;608512;233;65077;-64
2022/01/30 08:40:15;;;;;;;;;;;;;;;24.64;62.79;96644.23;608598;233;66814;-64
2022/01/30 08:42:43;;;;;;;;;;;;;;;24.65;63.58;96649.28;608277;233;66773;-70
2022/01/30 08:45:12;;;;;;;;;;;;;;;24.67;63.57;96651.68;608557;231;64899;-71
2022/01/30 08:47:44;;;;;;;;;;;;;;;24.68;63.19;96664.80;608527;230;64610;-70
2022/01/30 08:50:12;;;;;;;;;;;;;;;24.71;63.49;96655.34;608534;233;66934;-70
2022/01/30 08:52:40;;;;;;;;;;;;;;;24.72;63.73;96662.31;608540;233;62895;-69
2022/01/30 08:55:08;;;;;;;;;;;;;;;24.74;64.25;96660.89;609340;232;65125;-70
2022/01/30 08:57:36;;;;;;;;;;;;;;;24.76;63.87;96666.77;609469;233;66871;-70
2022/01/30 09:00:05;;;;;;;;;;;;;;;24.77;63.52;96654.11;609488;233;65061;-70
2022/01/30 09:02:33;;;;;;;;;;;;;;;24.77;63.34;96656.80;609475;233;66956;-70
2022/01/30 09:05:00;;;;;;;;;;;;;;;24.78;63.24;96655.72;609458;233;66593;-70
2022/01/30 09:07:28;;;;;;;;;;;;;;;24.79;62.46;96674.21;609527;233;64816;-70
2022/01/30 09:09:55;;;;;;;;;;;;;;;24.80;63.26;96673.13;609502;233;64478;-70
2022/01/30 09:12:23;;;;;;;;;;;;;;;24.80;63.69;96678.51;609480;233;64643;-70
2022/01/30 09:14:50;;;;;;;;;;;;;;;24.82;62.86;96678.19;609264;233;62784;-70
2022/01/30 09:17:18;;;;;;;;;;;;;;;24.83;63.58;96695.92;609090;233;66922;-70
2022/01/30 09:19:46;;;;;;;;;;;;;;;24.85;63.72;96699.08;608878;233;64745;-70
2022/01/30 09:22:15;;;;;;;;;;;;;;;24.85;63.19;96692.91;609412;233;62939;-70
2022/01/30 09:24:43;;;;;;;;;;;;;;;24.86;62.82;96691.83;609506;233;64819;-70
2022/01/30 09:27:10;;;;;;;;;;;;;;;24.87;63.48;96682.66;609489;233;66816;-70
2022/01/30 09:29:39;;;;;;;;;;;;;;;24.88;62.71;96676.99;609469;233;65057;-70
2022/01/30 09:32:07;;;;;;;;;;;;;;;24.88;63.23;96666.24;609599;233;66971;-70
2022/01/30 09:34:35;;;;;;;;;;;;;;;24.89;62.52;96678.57;609534;233;66336;-70
2022/01/30 09:37:03;;;;;;;;;;;;;;;24.90;62.45;96658.64;609457;233;65044;-70
2022/01/30 09:39:30;;;;;;;;;;;;;;;24.92;62.78;96651.08;609453;233;66802;-70
2022/01/30 09:41:58;;;;;;;;;;;;;;;24.93;62.89;96649.18;609347;232;66866;-70
2022/01/30 09:44:25;;;;;;;;;;;;;;;24.97;61.25;96655.55;609067;233;65036;-70
2022/01/30 09:46:53;;;;;;;;;;;;;;;24.97;61.50;96642.11;608768;233;66679;-70
2022/01/30 09:49:22;;;;;;;;;;;;;;;24.98;62.24;96641.00;608829;233;66488;-70
2022/01/30 09:51:50;;;;;;;;;;;;;;;24.99;60.92;96643.39;609523;233;63032;-70
2022/01/30 09:54:18;;;;;;;;;;;;;;;25.04;60.62;96637.08;609482;232;66677;-70
2022/01/30 09:56:46;;;;;;;;;;;;;;;25.07;60.67;96632.98;609502;233;66845;-70
2022/01/30 09:59:13;;;;;;;;;;;;;;;25.07;60.25;96632.98;609555;233;65153;-70
2022/01/30 10:01:41;;;;;;;;;;;;;;;25.09;60.06;96626.20;609452;233;64277;-70
2022/01/30 10:04:08;;;;;;;;;;;;;;;25.11;59.35;96625.91;609558;233;64721;-70
2022/01/30 10:06:56;;;;;;;;;;;;;;;25.13;59.04;96610.27;609499;233;65049;-70
2022/01/30 10:09:29;;;;;;;;;;;;;;;25.15;61.37;96613.45;609495;232;67026;-70
2022/01/30 10:12:09;;;;;;;;;;;;;;;25.16;60.35;96604.30;609482;233;66873;-70
2022/01/30 10:14:28;;;;;;;;;;;;;;;25.18;59.74;96604.77;609089;232;65097;-70
2022/01/30 10:16:56;;;;;;;;;;;;;;;25.19;59.56;96598.30;609510;233;64426;-70
2022/01/30 10:19:24;;;;;;;;;;;;;;;25.19;60.67;96579.48;609475;232;64489;-70
2022/01/30 10:21:53;;;;;;;;;;;;;;;25.22;59.32;96581.55;609478;233;64961;-70
2022/01/30 10:24:28;;;;;;;;;;;;;;;25.22;59.56;96571.59;609112;232;64548;-70
2022/01/30 10:27:03;;;;;;;;;;;;;;;25.24;58.20;96565.91;609545;233;66645;-70
2022/01/30 10:29:27;;;;;;;;;;;;;;;25.25;59.91;96579.03;609292;232;63588;-70
2022/01/30 10:31:58;;;;;;;;;;;;;;;25.27;59.20;96570.66;609479;233;66984;-71
2022/01/30 10:34:31;;;;;;;;;;;;;;;25.28;57.84;96574.93;609509;232;66803;-71
2022/01/30 10:37:13;;;;;;;;;;;;;;;25.29;58.35;96549.64;609283;232;65238;-71
2022/01/30 10:39:55;;;;;;;;;;;;;;;25.31;58.45;96554.69;609513;233;66753;-70
2022/01/30 10:42:37;;;;;;;;;;;;;;;25.33;58.60;96536.36;609384;232;64716;-70
2022/01/30 10:45:06;;;;;;;;;;;;;;;25.33;58.07;96539.05;609542;233;65358;-71
2022/01/30 10:47:37;;;;;;;;;;;;;;;25.34;58.58;96536.03;609217;233;47506;-71
2022/01/30 10:50:12;;;;;;;;;;;;;;;25.35;57.57;96499.98;609507;233;66982;-70
2022/01/30 10:52:49;;;;;;;;;;;;;;;25.37;58.17;96511.23;609370;233;65030;-71
2022/01/30 10:55:16;;;;;;;;;;;;;;;25.38;58.34;96515.49;608547;232;67055;-69
2022/01/30 10:57:45;;;;;;;;;;;;;;;25.37;59.89;96495.09;608541;233;67333;-70
2022/01/30 11:00:13;;;;;;;;;;;;;;;25.39;57.31;96498.23;608504;233;62911;-69
2022/01/30 11:02:41;;;;;;;;;;;;;;;25.43;55.93;96490.36;608508;233;67181;-69
2022/01/30 11:05:13;;;;;;;;;;;;;;;25.45;56.64;96486.25;608497;233;64740;-69
2022/01/30 11:07:38;;;;;;;;;;;;;;;25.46;55.49;96487.83;608450;231;62923;-69
2022/01/30 11:10:13;;;;;;;;;;;;;;;25.47;55.31;96478.64;608558;233;65152;-70
2022/01/30 11:12:56;;;;;;;;;;;;;;;25.48;56.03;96490.19;608303;230;64749;-70
2022/01/30 11:15:20;;;;;;;;;;;;;;;25.50;56.51;96484.50;607714;233;65146;-70
2022/01/30 11:17:45;;;;;;;;;;;;;;;25.51;58.59;96478.83;608389;233;64755;-70
2022/01/30 11:20:13;;;;;;;;;;;;;;;25.53;55.38;96498.12;608505;233;66946;-70
2022/01/30 11:22:43;;;;;;;;;;;;;;;25.54;55.22;96494.34;608468;233;64884;-70
2022/01/30 11:25:12;;;;;;;;;;;;;;;25.55;56.53;96501.30;608561;233;68250;-70
2022/01/30 11:27:45;;;;;;;;;;;;;;;25.56;56.72;96480.55;608523;233;67029;-70
2022/01/30 11:30:15;;;;;;;;;;;;;;;25.57;55.24;96479.47;608476;233;62784;-70
2022/01/30 11:32:42;;;;;;;;;;;;;;;25.60;54.56;96478.84;608526;233;64924;-70
2022/01/30 11:35:10;;;;;;;;;;;;;;;25.62;55.38;96471.25;608517;231;65134;-69
2022/01/30 11:37:39;;;;;;;;;;;;;;;25.62;55.13;96495.47;608566;233;65105;-69
2022/01/30 11:40:14;;;;;;;;;;;;;;;25.64;54.25;96482.47;608500;233;67210;-69
2022/01/30 11:42:48;;;;;;;;;;;;;;;25.65;55.24;96470.63;608451;233;67166;-69
2022/01/30 11:45:20;;;;;;;;;;;;;;;25.67;54.69;96476.45;608536;233;64890;-69
2022/01/30 11:47:59;;;;;;;;;;;;;;;25.68;54.09;96480.75;608503;233;67173;-70
2022/01/30 11:50:31;;;;;;;;;;;;;;;25.68;53.75;96476.16;608519;233;64882;-70
2022/01/30 11:53:00;;;;;;;;;;;;;;;25.69;53.56;96472.34;608305;233;64972;-70
2022/01/30 11:55:48;;;;;;;;;;;;;;;25.71;53.92;96466.66;608503;233;67059;-70
2022/01/30 11:58:33;;;;;;;;;;;;;;;25.73;54.28;96490.55;608346;231;64685;-68
2022/01/30 12:01:05;;;;;;;;;;;;;;;25.74;53.44;96481.39;608526;230;65318;-69
2022/01/30 12:03:35;;;;;;;;;;;;;;;25.74;54.49;96476.80;608485;233;64946;-69
2022/01/30 12:06:22;;;;;;;;;;;;;;;25.75;54.10;96486.45;608509;233;64188;-69
2022/01/30 12:08:50;;;;;;;;;;;;;;;25.77;53.66;96483.45;608401;233;62877;-69
2022/01/30 12:11:39;;;;;;;;;;;;;;;25.77;54.11;96486.14;608518;233;65010;-69
2022/01/30 12:14:24;;;;;;;;;;;;;;;25.78;54.31;96485.84;596489;233;66608;-69
2022/01/30 12:17:00;;;;;;;;;;;;;;;25.79;54.49;96475.86;607917;233;66008;-69
2022/01/30 12:19:45;;;;;;;;;;;;;;;25.79;54.03;96468.58;608360;233;67077;-61
2022/01/30 12:22:18;;;;;;;;;;;;;;;25.78;53.95;96472.38;608005;231;67151;-69
2022/01/30 12:24:47;;;;;;;;;;;;;;;25.80;54.25;96474.74;608495;233;65259;-69
2022/01/30 12:27:15;;;;;;;;;;;;;;;25.79;54.19;96471.27;608397;230;65082;-69
2022/01/30 12:29:52;;;;;;;;;;;;;;;25.81;53.78;96476.31;608508;233;67397;-69
2022/01/30 12:32:25;;;;;;;;;;;;;;;25.81;53.79;96471.75;608582;231;65374;-69
2022/01/30 12:34:57;;;;;;;;;;;;;;;25.83;53.62;96457.96;608460;233;69284;-69
2022/01/30 12:37:26;;;;;;;;;;;;;;;25.83;53.93;96453.39;608517;233;67152;-69
2022/01/30 12:39:54;;;;;;;;;;;;;;;25.84;53.67;96457.69;608462;233;62912;-70
2022/01/30 12:42:23;;;;;;;;;;;;;;;25.86;53.46;96447.41;608457;233;65266;-69
2022/01/30 12:44:50;;;;;;;;;;;;;;;25.88;55.63;96434.40;608461;233;67246;-69
2022/01/30 12:47:18;;;;;;;;;;;;;;;25.89;55.32;96435.19;608563;233;65076;-69
2022/01/30 12:49:52;;;;;;;;;;;;;;;25.91;53.44;96436.45;608494;233;67390;-69
2022/01/30 12:52:33;;;;;;;;;;;;;;;25.93;54.81;96435.36;608469;233;67827;-68
2022/01/30 12:54:54;;;;;;;;;;;;;;;25.93;53.63;96425.38;608709;232;65048;-69
2022/01/30 12:57:22;;;;;;;;;;;;;;;25.96;53.66;96429.34;609398;233;67136;-70
2022/01/30 12:59:56;;;;;;;;;;;;;;;25.98;53.75;96421.75;609424;233;67245;-70
2022/01/30 13:02:24;;;;;;;;;;;;;;;25.99;54.28;96432.18;609337;232;64923;-70
2022/01/30 13:05:02;;;;;;;;;;;;;;;26.01;53.75;96435.36;609283;233;67286;-65
2022/01/30 13:07:29;;;;;;;;;;;;;;;25.99;56.14;96423.31;609445;233;65039;-65
2022/01/30 13:10:16;;;;;;;;;;;;;;;26.00;54.31;96417.63;609472;233;62891;-64
2022/01/30 13:12:47;;;;;;;;;;;;;;;26.03;53.03;96413.52;609219;232;67388;-64
2022/01/30 13:15:12;;;;;;;;;;;;;;;26.06;53.48;96418.26;609141;232;64955;-64
2022/01/30 13:17:40;;;;;;;;;;;;;;;26.06;52.75;96424.43;609495;232;65148;-64
2022/01/30 13:20:09;;;;;;;;;;;;;;;26.09;52.55;96414.92;609451;233;67263;-65
2022/01/30 13:22:38;;;;;;;;;;;;;;;26.09;52.46;96423.00;609475;233;66813;-65
2022/01/30 13:25:07;;;;;;;;;;;;;;;26.09;52.46;96431.87;609433;233;65134;-64
2022/01/30 13:27:36;;;;;;;;;;;;;;;26.11;52.24;96428.87;609417;233;67255;-64
2022/01/30 13:30:05;;;;;;;;;;;;;;;26.13;52.64;96440.09;609117;232;67451;-67
2022/01/30 13:32:32;;;;;;;;;;;;;;;26.09;54.33;96442.64;609327;233;65370;-66
2022/01/30 13:35:02;;;;;;;;;;;;;;;26.11;53.85;96442.33;608961;232;67046;-67
2022/01/30 13:37:30;;;;;;;;;;;;;;;26.11;52.51;96434.25;608440;233;67150;-67
2022/01/30 13:40:05;;;;;;;;;;;;;;;26.13;52.12;96437.40;609287;233;64965;-68
2022/01/30 13:47:57;;;;;;;;;;;;;;;26.16;52.33;96449.44;609456;233;62812;-68
2022/01/30 13:50:26;;;;;;;;;;;;;;;26.14;51.83;96439.00;609483;233;66078;-68
2022/01/30 13:53:05;;;;;;;;;;;;;;;26.17;51.37;96438.36;609110;232;64628;-68
2022/01/30 13:55:33;;;;;;;;;;;;;;;26.17;51.63;96446.44;609159;232;62840;-67
2022/01/30 13:58:01;;;;;;;;;;;;;;;26.19;52.25;96455.00;609395;232;64973;-68
2022/01/30 14:00:33;;;;;;;;;;;;;;;26.18;52.06;96466.08;609236;232;46872;-68
2022/01/30 14:03:02;;;;;;;;;;;;;;;26.20;51.26;96463.87;609370;233;65048;-68
2022/01/30 14:05:40;;;;;;;;;;;;;;;26.20;51.33;96442.32;609425;233;66868;-68
2022/01/30 14:08:20;;;;;;;;;;;;;;;26.21;51.50;96451.97;609292;232;64371;-67